Time;durP1;ratioP1;P1;durP2;ratioP2;P2;SDS_P1;SDS_P2;PMS_P1;PMS_P2;Temp;Humidity;BMP_temperature;BMP_pressure;BME280_temperature;BME280_humidity;BME280_pressure;Samples;Min_cycle;Max_cycle;Signal;HPM_P1;HPM_P2
2023/05/18 00:00:09;;;;;;;;;;;;;;;;;;4956817;28;19926;-89
2023/05/18 00:02:35;;;;;;;;;;;;;;;;;;4972548;28;19922;-90
2023/05/18 00:05:01;;;;;;;;;;;;;;;;;;4956375;28;20379;-89
2023/05/18 00:07:28;;;;;;;;;;;;;;;;;;4972817;28;19929;-89
2023/05/18 00:09:55;;;;;;;;;;;;;;;;;;4972815;28;20017;-89
2023/05/18 00:12:20;;;;;;;;;;;;;;;;;;4956614;28;19966;-89
2023/05/18 00:14:46;;;;;;;;;;;;;;;;;;4956325;28;19922;-89
2023/05/18 00:17:13;;;;;;;;;;;;;;;;;;4956651;28;19930;-89
2023/05/18 00:19:39;;;;;;;;;;;;;;;;;;4956493;28;19948;-89
2023/05/18 00:22:06;;;;;;;;;;;;;;;;;;4956343;28;20016;-89
2023/05/18 00:24:32;;;;;;;;;;;;;;;;;;4972517;28;19926;-89
2023/05/18 00:26:58;;;;;;;;;;;;;;;;;;4956620;28;20459;-89
2023/05/18 00:29:24;;;;;;;;;;;;;;;;;;4972324;28;20005;-89
2023/05/18 00:31:50;;;;;;;;;;;;;;;;;;4956073;28;19922;-90
2023/05/18 00:34:16;;;;;;;;;;;;;;;;;;4956439;28;19921;-90
2023/05/18 00:36:41;;;;;;;;;;;;;;;;;;4957766;28;19922;-90
2023/05/18 00:39:08;;;;;;;;;;;;;;;;;;4960105;28;19926;-89
2023/05/18 00:41:34;;;;;;;;;;;;;;;;;;4959582;28;20367;-89
2023/05/18 00:43:59;;;;;;;;;;;;;;;;;;4959786;28;20040;-89
2023/05/18 00:46:25;;;;;;;;;;;;;;;;;;4959861;28;19945;-90
2023/05/18 00:48:51;;;;;;;;;;;;;;;;;;4959940;28;20379;-89
2023/05/18 00:51:17;;;;;;;;;;;;;;;;;;4959374;28;20018;-89
2023/05/18 00:53:43;;;;;;;;;;;;;;;;;;4959719;28;19922;-90
2023/05/18 00:56:09;;;;;;;;;;;;;;;;;;4975574;28;20025;-90
2023/05/18 00:58:35;;;;;;;;;;;;;;;;;;4960138;28;19965;-88
2023/05/18 01:01:02;;;;;;;;;;;;;;;;;;4975849;28;19929;-90
2023/05/18 01:03:29;;;;;;;;;;;;;;;;;;4959554;28;20398;-88
2023/05/18 01:05:56;;;;;;;;;;;;;;;;;;4959523;28;19977;-89
2023/05/18 01:08:22;;;;;;;;;;;;;;;;;;4959623;28;19972;-89
2023/05/18 01:10:48;;;;;;;;;;;;;;;;;;4959122;28;19922;-89
2023/05/18 01:13:14;;;;;;;;;;;;;;;;;;4959258;28;19926;-89
2023/05/18 01:15:40;;;;;;;;;;;;;;;;;;4959340;28;19933;-88
2023/05/18 01:18:09;;;;;;;;;;;;;;;;;;4975373;28;19922;-89
2023/05/18 01:20:37;;;;;;;;;;;;;;;;;;4975284;28;19922;-89
2023/05/18 01:23:03;;;;;;;;;;;;;;;;;;4959139;28;19922;-89
2023/05/18 01:25:30;;;;;;;;;;;;;;;;;;4959212;28;20371;-89
2023/05/18 01:27:58;;;;;;;;;;;;;;;;;;4959631;28;19926;-88
2023/05/18 01:30:24;;;;;;;;;;;;;;;;;;4958877;28;19929;-88
2023/05/18 01:32:50;;;;;;;;;;;;;;;;;;4975210;28;19922;-89
2023/05/18 01:35:16;;;;;;;;;;;;;;;;;;4958996;28;19938;-89
2023/05/18 01:37:42;;;;;;;;;;;;;;;;;;4959047;28;20004;-89
2023/05/18 01:40:08;;;;;;;;;;;;;;;;;;4958793;28;19922;-90
2023/05/18 01:42:34;;;;;;;;;;;;;;;;;;4974910;28;19974;-89
2023/05/18 01:45:00;;;;;;;;;;;;;;;;;;4958732;28;20008;-89
2023/05/18 01:47:26;;;;;;;;;;;;;;;;;;4958621;28;19954;-89
2023/05/18 01:49:51;;;;;;;;;;;;;;;;;;4958610;28;20009;-89
2023/05/18 01:52:17;;;;;;;;;;;;;;;;;;4958465;28;19976;-89
2023/05/18 01:54:43;;;;;;;;;;;;;;;;;;4958456;28;19929;-89
2023/05/18 01:57:09;;;;;;;;;;;;;;;;;;4958749;28;19929;-89
2023/05/18 01:59:35;;;;;;;;;;;;;;;;;;4974796;28;20334;-88
2023/05/18 02:02:01;;;;;;;;;;;;;;;;;;4958113;28;20395;-89
2023/05/18 02:04:27;;;;;;;;;;;;;;;;;;4958139;28;19926;-90
2023/05/18 02:06:53;;;;;;;;;;;;;;;;;;4958431;28;19988;-89
2023/05/18 02:09:19;;;;;;;;;;;;;;;;;;4974619;28;19969;-89
2023/05/18 02:11:45;;;;;;;;;;;;;;;;;;4974152;28;19975;-88
2023/05/18 02:14:11;;;;;;;;;;;;;;;;;;4958484;28;19922;-90
2023/05/18 02:16:37;;;;;;;;;;;;;;;;;;4958242;28;19981;-89
2023/05/18 02:19:03;;;;;;;;;;;;;;;;;;4958291;28;19922;-89
2023/05/18 02:21:29;;;;;;;;;;;;;;;;;;4957816;28;20008;-89
2023/05/18 02:23:55;;;;;;;;;;;;;;;;;;4958024;28;19922;-89
2023/05/18 02:26:21;;;;;;;;;;;;;;;;;;4958305;28;20445;-89
2023/05/18 02:28:47;;;;;;;;;;;;;;;;;;4974101;28;19922;-89
2023/05/18 02:31:12;;;;;;;;;;;;;;;;;;4957515;28;19930;-89
2023/05/18 02:33:39;;;;;;;;;;;;;;;;;;4957884;28;19922;-89
2023/05/18 02:36:05;;;;;;;;;;;;;;;;;;4958050;28;19969;-90
2023/05/18 02:38:31;;;;;;;;;;;;;;;;;;4957646;28;20005;-88
2023/05/18 02:40:57;;;;;;;;;;;;;;;;;;4957658;28;19922;-89
2023/05/18 02:43:23;;;;;;;;;;;;;;;;;;4957581;28;20331;-89
2023/05/18 02:45:50;;;;;;;;;;;;;;;;;;4973748;28;20046;-89
2023/05/18 02:48:16;;;;;;;;;;;;;;;;;;4957575;28;19945;-89
2023/05/18 02:50:42;;;;;;;;;;;;;;;;;;4957577;28;20355;-89
2023/05/18 02:53:08;;;;;;;;;;;;;;;;;;4973692;28;20391;-87
2023/05/18 02:55:34;;;;;;;;;;;;;;;;;;4957622;28;20013;-89
2023/05/18 02:58:01;;;;;;;;;;;;;;;;;;4957576;28;20005;-89
2023/05/18 03:00:29;;;;;;;;;;;;;;;;;;4956648;28;19922;-89
2023/05/18 03:02:56;;;;;;;;;;;;;;;;;;4957591;28;20395;-89
2023/05/18 03:05:22;;;;;;;;;;;;;;;;;;4957392;28;19926;-89
2023/05/18 03:07:49;;;;;;;;;;;;;;;;;;4957555;28;20067;-89
2023/05/18 03:10:15;;;;;;;;;;;;;;;;;;4973152;28;19922;-89
2023/05/18 03:12:41;;;;;;;;;;;;;;;;;;4973309;28;19930;-89
2023/05/18 03:15:07;;;;;;;;;;;;;;;;;;4957668;28;19929;-89
2023/05/18 03:17:33;;;;;;;;;;;;;;;;;;4957350;28;20027;-89
2023/05/18 03:20:02;;;;;;;;;;;;;;;;;;4957341;28;19926;-90
2023/05/18 03:22:28;;;;;;;;;;;;;;;;;;4957287;28;19922;-89
2023/05/18 03:24:54;;;;;;;;;;;;;;;;;;4957451;28;19930;-89
2023/05/18 03:27:24;;;;;;;;;;;;;;;;;;4961539;28;19922;-89
2023/05/18 03:29:51;;;;;;;;;;;;;;;;;;4977993;28;20005;-89
2023/05/18 03:32:17;;;;;;;;;;;;;;;;;;4960064;28;20310;-88
2023/05/18 03:34:43;;;;;;;;;;;;;;;;;;4959454;28;19953;-89
2023/05/18 03:37:09;;;;;;;;;;;;;;;;;;4963584;28;20012;-89
2023/05/18 03:39:35;;;;;;;;;;;;;;;;;;4964045;28;19973;-89
2023/05/18 03:42:01;;;;;;;;;;;;;;;;;;4972997;28;20268;-88
2023/05/18 03:44:27;;;;;;;;;;;;;;;;;;4957180;28;19933;-89
2023/05/18 03:46:53;;;;;;;;;;;;;;;;;;4956822;28;19922;-88
2023/05/18 03:49:19;;;;;;;;;;;;;;;;;;4957223;28;19985;-89
2023/05/18 03:51:45;;;;;;;;;;;;;;;;;;4956802;28;20503;-89
2023/05/18 03:54:11;;;;;;;;;;;;;;;;;;4956931;28;19926;-88
2023/05/18 03:56:37;;;;;;;;;;;;;;;;;;4956716;28;19930;-89
2023/05/18 03:59:03;;;;;;;;;;;;;;;;;;4956699;28;19926;-88
2023/05/18 04:01:29;;;;;;;;;;;;;;;;;;4972407;28;19926;-89
2023/05/18 04:03:56;;;;;;;;;;;;;;;;;;4952328;28;20295;-89
2023/05/18 04:06:22;;;;;;;;;;;;;;;;;;4949710;28;19926;-89
2023/05/18 04:08:48;;;;;;;;;;;;;;;;;;4952502;28;19934;-89
2023/05/18 04:11:14;;;;;;;;;;;;;;;;;;4964888;28;19922;-88
2023/05/18 04:13:40;;;;;;;;;;;;;;;;;;4972226;28;20450;-89
2023/05/18 04:16:06;;;;;;;;;;;;;;;;;;4952382;28;19922;-89
2023/05/18 04:18:32;;;;;;;;;;;;;;;;;;4955550;28;19926;-89
2023/05/18 04:20:59;;;;;;;;;;;;;;;;;;4968463;28;19930;-89
2023/05/18 04:23:25;;;;;;;;;;;;;;;;;;4953588;28;19929;-89
2023/05/18 04:25:51;;;;;;;;;;;;;;;;;;4952713;28;19933;-88
2023/05/18 04:28:18;;;;;;;;;;;;;;;;;;4953655;28;19923;-88
2023/05/18 04:30:44;;;;;;;;;;;;;;;;;;4967639;28;19945;-89
2023/05/18 04:33:11;;;;;;;;;;;;;;;;;;4952481;28;19930;-89
2023/05/18 04:35:37;;;;;;;;;;;;;;;;;;4948645;29;19922;-89
2023/05/18 04:38:04;;;;;;;;;;;;;;;;;;4953155;28;19936;-89
2023/05/18 04:40:32;;;;;;;;;;;;;;;;;;4966986;28;19989;-88
2023/05/18 04:42:59;;;;;;;;;;;;;;;;;;4959465;28;19922;-89
2023/05/18 04:45:25;;;;;;;;;;;;;;;;;;4951817;28;19927;-89
2023/05/18 04:47:54;;;;;;;;;;;;;;;;;;4951344;28;19929;-89
2023/05/18 04:50:20;;;;;;;;;;;;;;;;;;4951549;28;19945;-89
2023/05/18 04:52:49;;;;;;;;;;;;;;;;;;4970620;28;20446;-89
2023/05/18 04:55:15;;;;;;;;;;;;;;;;;;4947780;28;20001;-89
2023/05/18 04:57:41;;;;;;;;;;;;;;;;;;4951551;28;19962;-89
2023/05/18 05:00:08;;;;;;;;;;;;;;;;;;4951596;28;20400;-89
2023/05/18 05:02:34;;;;;;;;;;;;;;;;;;4956005;29;20276;-88
2023/05/18 05:05:00;;;;;;;;;;;;;;;;;;4950780;28;19932;-89
2023/05/18 05:07:26;;;;;;;;;;;;;;;;;;4950245;28;19922;-89
2023/05/18 05:09:52;;;;;;;;;;;;;;;;;;4968257;28;19923;-90
2023/05/18 05:12:18;;;;;;;;;;;;;;;;;;4967598;28;19930;-89
2023/05/18 05:14:43;;;;;;;;;;;;;;;;;;4950540;28;19922;-89
2023/05/18 05:17:11;;;;;;;;;;;;;;;;;;4952045;28;20287;-89
2023/05/18 05:19:37;;;;;;;;;;;;;;;;;;4948071;28;19926;-89
2023/05/18 05:22:03;;;;;;;;;;;;;;;;;;4966718;28;20522;-89
2023/05/18 05:24:29;;;;;;;;;;;;;;;;;;4968332;28;19927;-89
2023/05/18 05:26:54;;;;;;;;;;;;;;;;;;4954519;28;20725;-89
2023/05/18 05:29:21;;;;;;;;;;;;;;;;;;4965184;28;19922;-88
2023/05/18 05:31:46;;;;;;;;;;;;;;;;;;4950626;28;20135;-89
2023/05/18 05:34:12;;;;;;;;;;;;;;;;;;4954233;28;20008;-90
2023/05/18 05:36:38;;;;;;;;;;;;;;;;;;4951628;28;19926;-89
2023/05/18 05:39:04;;;;;;;;;;;;;;;;;;4951627;29;19930;-89
2023/05/18 05:41:30;;;;;;;;;;;;;;;;;;4947272;28;20423;-88
2023/05/18 05:43:56;;;;;;;;;;;;;;;;;;4970649;28;19926;-88
2023/05/18 05:46:22;;;;;;;;;;;;;;;;;;4950498;28;20024;-89
2023/05/18 05:48:48;;;;;;;;;;;;;;;;;;4952826;28;20333;-89
2023/05/18 05:51:14;;;;;;;;;;;;;;;;;;4946851;29;19945;-89
2023/05/18 05:53:42;;;;;;;;;;;;;;;;;;4951330;28;19939;-89
2023/05/18 05:56:08;;;;;;;;;;;;;;;;;;4947110;29;19929;-88
2023/05/18 05:58:34;;;;;;;;;;;;;;;;;;4950572;29;20287;-89
2023/05/18 06:01:00;;;;;;;;;;;;;;;;;;4946453;28;19922;-88
2023/05/18 06:03:28;;;;;;;;;;;;;;;;;;4966165;28;19938;-89
2023/05/18 06:05:55;;;;;;;;;;;;;;;;;;4962236;28;19997;-89
2023/05/18 06:08:23;;;;;;;;;;;;;;;;;;4953329;28;19922;-89
2023/05/18 06:10:48;;;;;;;;;;;;;;;;;;4950280;28;19923;-89
2023/05/18 06:13:15;;;;;;;;;;;;;;;;;;4950247;28;20049;-88
2023/05/18 06:15:41;;;;;;;;;;;;;;;;;;4950593;28;19922;-89
2023/05/18 06:18:06;;;;;;;;;;;;;;;;;;4954103;28;19922;-89
2023/05/18 06:20:33;;;;;;;;;;;;;;;;;;4949749;28;20040;-88
2023/05/18 06:22:58;;;;;;;;;;;;;;;;;;4946094;29;19980;-88
2023/05/18 06:25:24;;;;;;;;;;;;;;;;;;4946286;29;20455;-88
2023/05/18 06:27:51;;;;;;;;;;;;;;;;;;4953190;28;19922;-88
2023/05/18 06:30:17;;;;;;;;;;;;;;;;;;4947655;28;19965;-88
2023/05/18 06:32:42;;;;;;;;;;;;;;;;;;4953178;28;19988;-88
2023/05/18 06:35:08;;;;;;;;;;;;;;;;;;4946487;28;20026;-87
2023/05/18 06:37:34;;;;;;;;;;;;;;;;;;4953748;29;20014;-88
2023/05/18 06:40:00;;;;;;;;;;;;;;;;;;4962597;28;19973;-88
2023/05/18 06:42:26;;;;;;;;;;;;;;;;;;4951883;28;20012;-88
2023/05/18 06:44:52;;;;;;;;;;;;;;;;;;4945482;28;19926;-88
2023/05/18 06:47:18;;;;;;;;;;;;;;;;;;4949842;28;19923;-88
2023/05/18 06:49:44;;;;;;;;;;;;;;;;;;4947616;28;19969;-88
2023/05/18 06:52:10;;;;;;;;;;;;;;;;;;4953156;28;19937;-88
2023/05/18 06:54:36;;;;;;;;;;;;;;;;;;4948850;28;19922;-89
2023/05/18 06:57:02;;;;;;;;;;;;;;;;;;4950167;28;19929;-88
2023/05/18 06:59:28;;;;;;;;;;;;;;;;;;4948395;29;19922;-88
2023/05/18 07:01:53;;;;;;;;;;;;;;;;;;4949794;28;19969;-88
2023/05/18 07:04:20;;;;;;;;;;;;;;;;;;4951398;28;19949;-89
2023/05/18 07:06:45;;;;;;;;;;;;;;;;;;4949006;28;20386;-88
2023/05/18 07:09:11;;;;;;;;;;;;;;;;;;4951500;28;19922;-88
2023/05/18 07:11:39;;;;;;;;;;;;;;;;;;4942326;28;19945;-89
2023/05/18 07:14:05;;;;;;;;;;;;;;;;;;4968985;28;20383;-89
2023/05/18 07:16:31;;;;;;;;;;;;;;;;;;4964807;28;19926;-89
2023/05/18 07:19:00;;;;;;;;;;;;;;;;;;4953932;29;20351;-89
2023/05/18 07:21:26;;;;;;;;;;;;;;;;;;4948838;28;20013;-89
2023/05/18 07:23:52;;;;;;;;;;;;;;;;;;4947850;29;19970;-88
2023/05/18 07:26:18;;;;;;;;;;;;;;;;;;4949079;28;19933;-88
2023/05/18 07:28:43;;;;;;;;;;;;;;;;;;4950439;28;20222;-89
2023/05/18 07:31:09;;;;;;;;;;;;;;;;;;4946251;28;19922;-89
2023/05/18 07:33:35;;;;;;;;;;;;;;;;;;4951795;28;19922;-89
2023/05/18 07:36:01;;;;;;;;;;;;;;;;;;4951632;28;20394;-89
2023/05/18 07:38:27;;;;;;;;;;;;;;;;;;4964842;28;19929;-87
2023/05/18 07:40:53;;;;;;;;;;;;;;;;;;4948186;28;19930;-89
2023/05/18 07:43:19;;;;;;;;;;;;;;;;;;4951980;28;19922;-89
2023/05/18 07:45:45;;;;;;;;;;;;;;;;;;4948069;28;19927;-89
2023/05/18 07:48:11;;;;;;;;;;;;;;;;;;4967312;28;19929;-88
2023/05/18 07:50:36;;;;;;;;;;;;;;;;;;4945441;28;19930;-88
2023/05/18 07:53:02;;;;;;;;;;;;;;;;;;4948198;28;19930;-87
2023/05/18 07:55:28;;;;;;;;;;;;;;;;;;4948405;28;19961;-89
2023/05/18 07:57:55;;;;;;;;;;;;;;;;;;4950924;28;19923;-88
2023/05/18 08:00:21;;;;;;;;;;;;;;;;;;4964888;28;19929;-87
2023/05/18 08:02:46;;;;;;;;;;;;;;;;;;4952875;28;19926;-88
2023/05/18 08:05:12;;;;;;;;;;;;;;;;;;4950491;28;20302;-88
2023/05/18 08:07:38;;;;;;;;;;;;;;;;;;4949866;28;19942;-88
2023/05/18 08:10:04;;;;;;;;;;;;;;;;;;4965261;28;19930;-88
2023/05/18 08:12:30;;;;;;;;;;;;;;;;;;4950692;28;19922;-88
2023/05/18 08:14:56;;;;;;;;;;;;;;;;;;4945496;28;20005;-88
2023/05/18 08:17:22;;;;;;;;;;;;;;;;;;4940957;29;20382;-87
2023/05/18 08:19:48;;;;;;;;;;;;;;;;;;4942855;28;19930;-88
2023/05/18 08:22:14;;;;;;;;;;;;;;;;;;4947220;28;19930;-88
2023/05/18 08:24:40;;;;;;;;;;;;;;;;;;4946690;28;20298;-89
2023/05/18 08:27:08;;;;;;;;;;;;;;;;;;4945599;28;19923;-89
2023/05/18 08:29:34;;;;;;;;;;;;;;;;;;4950730;28;20291;-88
2023/05/18 08:32:00;;;;;;;;;;;;;;;;;;4948667;28;19922;-89
2023/05/18 08:34:26;;;;;;;;;;;;;;;;;;4951651;28;19922;-88
2023/05/18 08:36:52;;;;;;;;;;;;;;;;;;4951620;28;19944;-87
2023/05/18 08:39:18;;;;;;;;;;;;;;;;;;4950606;28;20442;-88
2023/05/18 08:41:44;;;;;;;;;;;;;;;;;;4948023;28;19922;-91
2023/05/18 08:44:09;;;;;;;;;;;;;;;;;;4951296;28;20383;-90
2023/05/18 08:46:35;;;;;;;;;;;;;;;;;;4950843;28;19930;-90
2023/05/18 08:49:02;;;;;;;;;;;;;;;;;;4951669;28;20379;-90
2023/05/18 08:51:28;;;;;;;;;;;;;;;;;;4955894;28;19923;-90
2023/05/18 08:53:54;;;;;;;;;;;;;;;;;;4951228;29;19929;-90
2023/05/18 08:56:20;;;;;;;;;;;;;;;;;;4950061;28;19969;-89
2023/05/18 08:58:46;;;;;;;;;;;;;;;;;;4966826;28;19926;-89
2023/05/18 09:01:12;;;;;;;;;;;;;;;;;;4955357;28;20021;-90
2023/05/18 09:03:39;;;;;;;;;;;;;;;;;;4954475;28;19922;-90
2023/05/18 09:06:05;;;;;;;;;;;;;;;;;;4953558;28;19933;-89
2023/05/18 09:08:31;;;;;;;;;;;;;;;;;;4953596;28;19926;-90
2023/05/18 09:10:57;;;;;;;;;;;;;;;;;;4947843;28;19930;-89
2023/05/18 09:13:23;;;;;;;;;;;;;;;;;;4967619;28;19927;-89
2023/05/18 09:15:50;;;;;;;;;;;;;;;;;;4953236;28;19922;-90
2023/05/18 09:18:16;;;;;;;;;;;;;;;;;;4951642;28;20398;-89
2023/05/18 09:20:42;;;;;;;;;;;;;;;;;;4967787;28;19926;-89
2023/05/18 09:23:07;;;;;;;;;;;;;;;;;;4956172;28;19929;-90
2023/05/18 09:25:34;;;;;;;;;;;;;;;;;;4955659;28;19953;-90
2023/05/18 09:27:59;;;;;;;;;;;;;;;;;;4952619;28;20291;-89
2023/05/18 09:30:25;;;;;;;;;;;;;;;;;;4952006;28;19923;-89
2023/05/18 09:32:51;;;;;;;;;;;;;;;;;;4968763;28;19922;-90
2023/05/18 09:35:17;;;;;;;;;;;;;;;;;;4957320;28;20417;-89
2023/05/18 09:37:43;;;;;;;;;;;;;;;;;;4950709;28;19930;-89
2023/05/18 09:40:09;;;;;;;;;;;;;;;;;;4951326;28;19922;-89
2023/05/18 09:42:36;;;;;;;;;;;;;;;;;;4948809;28;19930;-89
2023/05/18 09:45:03;;;;;;;;;;;;;;;;;;4949411;28;20046;-88
2023/05/18 09:47:29;;;;;;;;;;;;;;;;;;4952446;28;20391;-88
2023/05/18 09:49:55;;;;;;;;;;;;;;;;;;4948726;28;20057;-88
2023/05/18 09:52:21;;;;;;;;;;;;;;;;;;4959449;28;19976;-91
2023/05/18 09:54:47;;;;;;;;;;;;;;;;;;4960218;28;20401;-92
2023/05/18 09:57:13;;;;;;;;;;;;;;;;;;4956841;28;19936;-90
2023/05/18 09:59:38;;;;;;;;;;;;;;;;;;4957169;28;20303;-92
2023/05/18 10:02:07;;;;;;;;;;;;;;;;;;4946307;29;19984;-91
2023/05/18 10:04:34;;;;;;;;;;;;;;;;;;4957565;28;19933;-91
2023/05/18 10:07:00;;;;;;;;;;;;;;;;;;4960066;28;20446;-91
2023/05/18 10:09:26;;;;;;;;;;;;;;;;;;4976234;28;19922;-91
2023/05/18 10:11:52;;;;;;;;;;;;;;;;;;4959842;28;19922;-92
2023/05/18 10:14:18;;;;;;;;;;;;;;;;;;4960427;28;19929;-92
2023/05/18 10:16:44;;;;;;;;;;;;;;;;;;4959481;28;19929;-92
2023/05/18 10:19:10;;;;;;;;;;;;;;;;;;4959615;28;19922;-92
2023/05/18 10:21:36;;;;;;;;;;;;;;;;;;4955489;28;19929;-92
2023/05/18 10:24:02;;;;;;;;;;;;;;;;;;4971943;28;19922;-92
2023/05/18 10:26:28;;;;;;;;;;;;;;;;;;4957156;28;19927;-92
2023/05/18 10:28:54;;;;;;;;;;;;;;;;;;4959462;28;21296;-92
2023/05/18 10:31:22;;;;;;;;;;;;;;;;;;4975472;28;19928;-92
2023/05/18 10:33:48;;;;;;;;;;;;;;;;;;4958508;28;19929;-91
2023/05/18 10:36:14;;;;;;;;;;;;;;;;;;4957185;28;19922;-92
2023/05/18 10:38:42;;;;;;;;;;;;;;;;;;4959794;28;19945;-92
2023/05/18 10:41:08;;;;;;;;;;;;;;;;;;4959499;28;19926;-91
2023/05/18 10:43:34;;;;;;;;;;;;;;;;;;4974859;28;19933;-91
2023/05/18 10:46:00;;;;;;;;;;;;;;;;;;4969380;28;19933;-90
2023/05/18 10:48:25;;;;;;;;;;;;;;;;;;4948011;29;19929;-91
2023/05/18 10:50:51;;;;;;;;;;;;;;;;;;4954705;28;20280;-92
2023/05/18 10:53:17;;;;;;;;;;;;;;;;;;4955437;28;19922;-92
2023/05/18 10:55:43;;;;;;;;;;;;;;;;;;4969355;28;19937;-92
2023/05/18 10:58:11;;;;;;;;;;;;;;;;;;4956452;28;19966;-92
2023/05/18 11:00:38;;;;;;;;;;;;;;;;;;4955794;28;19922;-92
2023/05/18 11:03:04;;;;;;;;;;;;;;;;;;4965819;28;19929;-93
2023/05/18 11:05:30;;;;;;;;;;;;;;;;;;4958772;28;20354;-92
2023/05/18 11:07:56;;;;;;;;;;;;;;;;;;4958882;28;19922;-92
2023/05/18 11:10:22;;;;;;;;;;;;;;;;;;4956045;28;19922;-92
2023/05/18 11:12:57;;;;;;;;;;;;;;;;;;4958443;28;19929;-92
2023/05/18 11:15:23;;;;;;;;;;;;;;;;;;4958511;28;19926;-92
2023/05/18 11:17:49;;;;;;;;;;;;;;;;;;4988943;28;19944;-92
2023/05/18 11:20:15;;;;;;;;;;;;;;;;;;4965218;28;19922;-92
2023/05/18 11:22:41;;;;;;;;;;;;;;;;;;4958562;28;19929;-93
2023/05/18 11:27:54;;;;;;;;;;;;;;;;;;4974841;28;20294;-91
2023/05/18 11:30:20;;;;;;;;;;;;;;;;;;4949829;29;19923;-92
2023/05/18 11:32:46;;;;;;;;;;;;;;;;;;4955074;28;19922;-92
2023/05/18 11:35:12;;;;;;;;;;;;;;;;;;4953430;28;20391;-92
2023/05/18 11:37:38;;;;;;;;;;;;;;;;;;4974315;28;19922;-91
2023/05/18 11:40:04;;;;;;;;;;;;;;;;;;4957912;28;19922;-93
2023/05/18 11:42:30;;;;;;;;;;;;;;;;;;4974119;28;19926;-92
2023/05/18 11:44:56;;;;;;;;;;;;;;;;;;4955172;28;19982;-93
2023/05/18 11:47:22;;;;;;;;;;;;;;;;;;4969010;28;19922;-92
2023/05/18 11:49:48;;;;;;;;;;;;;;;;;;4957702;28;20306;-91
2023/05/18 11:52:14;;;;;;;;;;;;;;;;;;4974224;28;19926;-93
2023/05/18 11:54:40;;;;;;;;;;;;;;;;;;4958238;28;20440;-91
2023/05/18 11:57:06;;;;;;;;;;;;;;;;;;4954321;28;20379;-92
2023/05/18 11:59:32;;;;;;;;;;;;;;;;;;4942459;29;19930;-92
2023/05/18 12:01:58;;;;;;;;;;;;;;;;;;4952324;28;20328;-91
2023/05/18 12:04:24;;;;;;;;;;;;;;;;;;4974035;28;19968;-91
2023/05/18 12:06:50;;;;;;;;;;;;;;;;;;4958445;28;19922;-93
2023/05/18 12:09:16;;;;;;;;;;;;;;;;;;4958014;28;20050;-91
2023/05/18 12:11:42;;;;;;;;;;;;;;;;;;4954044;29;20402;-93
2023/05/18 12:14:08;;;;;;;;;;;;;;;;;;4938924;29;20398;-92
2023/05/18 12:16:34;;;;;;;;;;;;;;;;;;4954912;29;19922;-92
2023/05/18 12:19:00;;;;;;;;;;;;;;;;;;4954949;29;19929;-92
2023/05/18 12:21:26;;;;;;;;;;;;;;;;;;4948555;28;19922;-93
2023/05/18 12:23:51;;;;;;;;;;;;;;;;;;4961459;28;20005;-90
2023/05/18 12:26:19;;;;;;;;;;;;;;;;;;4975954;28;19976;-93
2023/05/18 12:28:45;;;;;;;;;;;;;;;;;;4959937;28;19929;-92
2023/05/18 12:31:11;;;;;;;;;;;;;;;;;;4967788;28;20350;-92
2023/05/18 12:33:37;;;;;;;;;;;;;;;;;;4969969;28;20005;-91
2023/05/18 12:36:02;;;;;;;;;;;;;;;;;;4971623;28;19929;-90
2023/05/18 12:38:28;;;;;;;;;;;;;;;;;;4962022;28;20395;-92
2023/05/18 12:40:56;;;;;;;;;;;;;;;;;;4978011;28;20016;-92
2023/05/18 12:43:21;;;;;;;;;;;;;;;;;;4969152;28;19922;-93
2023/05/18 12:45:48;;;;;;;;;;;;;;;;;;4958440;28;19933;-92
2023/05/18 12:48:14;;;;;;;;;;;;;;;;;;4964083;28;20415;-93
2023/05/18 12:50:51;;;;;;;;;;;;;;;;;;4984613;28;19926;-91
2023/05/18 12:53:17;;;;;;;;;;;;;;;;;;4968223;28;19933;-93
2023/05/18 12:55:43;;;;;;;;;;;;;;;;;;4973561;28;19922;-90
2023/05/18 12:58:11;;;;;;;;;;;;;;;;;;4964270;29;19922;-92
2023/05/18 13:00:37;;;;;;;;;;;;;;;;;;4943425;29;20368;-90
2023/05/18 13:03:03;;;;;;;;;;;;;;;;;;4978965;28;19977;-91
2023/05/18 13:05:29;;;;;;;;;;;;;;;;;;4951301;28;19933;-91
2023/05/18 13:07:55;;;;;;;;;;;;;;;;;;4966323;28;20486;-92
2023/05/18 13:10:21;;;;;;;;;;;;;;;;;;4961174;28;19977;-92
2023/05/18 13:12:47;;;;;;;;;;;;;;;;;;4961419;28;19929;-92
2023/05/18 13:15:13;;;;;;;;;;;;;;;;;;4960670;28;19922;-92
2023/05/18 13:17:39;;;;;;;;;;;;;;;;;;4977565;28;20383;-94
2023/05/18 13:20:06;;;;;;;;;;;;;;;;;;4976953;28;19989;-94
2023/05/18 13:22:33;;;;;;;;;;;;;;;;;;4952904;28;19946;-93
2023/05/18 13:24:59;;;;;;;;;;;;;;;;;;4946371;29;19927;-93
2023/05/18 13:27:24;;;;;;;;;;;;;;;;;;4964023;28;19922;-93
2023/05/18 13:29:51;;;;;;;;;;;;;;;;;;4960454;28;20379;-93
2023/05/18 13:32:17;;;;;;;;;;;;;;;;;;4956616;28;19977;-91
2023/05/18 13:34:43;;;;;;;;;;;;;;;;;;4963332;28;20021;-91
2023/05/18 13:37:09;;;;;;;;;;;;;;;;;;4959449;28;19944;-92
2023/05/18 13:39:34;;;;;;;;;;;;;;;;;;4960790;28;19922;-92
2023/05/18 13:42:01;;;;;;;;;;;;;;;;;;4959943;28;19923;-92
2023/05/18 13:44:27;;;;;;;;;;;;;;;;;;4958812;28;19990;-92
2023/05/18 13:47:01;;;;;;;;;;;;;;;;;;4960206;28;19930;-93
2023/05/18 13:49:27;;;;;;;;;;;;;;;;;;4947876;28;20009;-93
2023/05/18 13:51:53;;;;;;;;;;;;;;;;;;4970277;28;19974;-92
2023/05/18 13:54:19;;;;;;;;;;;;;;;;;;4950733;28;19928;-93
2023/05/18 13:56:45;;;;;;;;;;;;;;;;;;4953688;28;20013;-92
2023/05/18 13:59:11;;;;;;;;;;;;;;;;;;4970022;28;20310;-93
2023/05/18 14:01:37;;;;;;;;;;;;;;;;;;4960159;28;19945;-91
2023/05/18 14:04:03;;;;;;;;;;;;;;;;;;4959928;28;19922;-92
2023/05/18 14:06:29;;;;;;;;;;;;;;;;;;4941259;29;19926;-93
2023/05/18 14:08:55;;;;;;;;;;;;;;;;;;4958783;28;19929;-92
2023/05/18 14:11:21;;;;;;;;;;;;;;;;;;4960067;28;19929;-93
2023/05/18 14:13:47;;;;;;;;;;;;;;;;;;4954758;29;19923;-93
2023/05/18 14:16:13;;;;;;;;;;;;;;;;;;4941044;29;19985;-93
2023/05/18 14:21:28;;;;;;;;;;;;;;;;;;4971110;28;20340;-92
2023/05/18 14:23:54;;;;;;;;;;;;;;;;;;4949725;28;19966;-93
2023/05/18 14:26:21;;;;;;;;;;;;;;;;;;4959625;28;19927;-93
2023/05/18 14:28:47;;;;;;;;;;;;;;;;;;4959510;28;19922;-93
2023/05/18 14:31:13;;;;;;;;;;;;;;;;;;4959082;28;20009;-93
2023/05/18 14:33:39;;;;;;;;;;;;;;;;;;4959231;28;19973;-94
2023/05/18 14:36:05;;;;;;;;;;;;;;;;;;4975450;28;19922;-93
2023/05/18 14:38:30;;;;;;;;;;;;;;;;;;4959708;28;20001;-92
2023/05/18 14:40:56;;;;;;;;;;;;;;;;;;4959247;28;19922;-93
2023/05/18 14:43:22;;;;;;;;;;;;;;;;;;4956919;28;19922;-93
2023/05/18 14:45:49;;;;;;;;;;;;;;;;;;4954956;28;19926;-92
2023/05/18 14:48:14;;;;;;;;;;;;;;;;;;4959146;28;20004;-93
2023/05/18 14:50:42;;;;;;;;;;;;;;;;;;4958971;28;20344;-94
2023/05/18 14:53:08;;;;;;;;;;;;;;;;;;4959324;28;20291;-92
2023/05/18 14:55:34;;;;;;;;;;;;;;;;;;4977259;28;19926;-93
2023/05/18 14:58:01;;;;;;;;;;;;;;;;;;4983167;28;20421;-93
2023/05/18 15:00:27;;;;;;;;;;;;;;;;;;4959015;28;19926;-93
2023/05/18 15:02:53;;;;;;;;;;;;;;;;;;4958826;28;20441;-94
2023/05/18 15:05:18;;;;;;;;;;;;;;;;;;4958935;28;20319;-93
2023/05/18 15:07:44;;;;;;;;;;;;;;;;;;4949586;28;19922;-93
2023/05/18 15:10:10;;;;;;;;;;;;;;;;;;4974996;28;19977;-93
2023/05/18 15:12:45;;;;;;;;;;;;;;;;;;4958677;28;19922;-93
2023/05/18 15:15:11;;;;;;;;;;;;;;;;;;4974680;28;19926;-92
2023/05/18 15:17:36;;;;;;;;;;;;;;;;;;4958089;28;19929;-93
2023/05/18 15:20:03;;;;;;;;;;;;;;;;;;4958365;28;19968;-93
2023/05/18 15:22:29;;;;;;;;;;;;;;;;;;4958197;28;19922;-93
2023/05/18 15:24:55;;;;;;;;;;;;;;;;;;4958750;28;19927;-93
2023/05/18 15:27:21;;;;;;;;;;;;;;;;;;4958284;28;19929;-92
2023/05/18 15:29:47;;;;;;;;;;;;;;;;;;4970241;28;19994;-92
2023/05/18 15:32:14;;;;;;;;;;;;;;;;;;4960115;28;20477;-92
2023/05/18 15:34:40;;;;;;;;;;;;;;;;;;4958345;28;19929;-93
2023/05/18 15:37:07;;;;;;;;;;;;;;;;;;4958308;28;19922;-94
2023/05/18 15:39:33;;;;;;;;;;;;;;;;;;4972568;28;19975;-92
2023/05/18 15:41:58;;;;;;;;;;;;;;;;;;4975001;28;19922;-94
2023/05/18 15:44:24;;;;;;;;;;;;;;;;;;4958526;28;19922;-94
2023/05/18 15:46:50;;;;;;;;;;;;;;;;;;4958136;28;19926;-94
2023/05/18 15:49:17;;;;;;;;;;;;;;;;;;4958265;28;19922;-93
2023/05/18 15:51:43;;;;;;;;;;;;;;;;;;4957975;28;20375;-93
2023/05/18 15:54:10;;;;;;;;;;;;;;;;;;4958125;28;19929;-93
2023/05/18 15:56:37;;;;;;;;;;;;;;;;;;4971365;28;20024;-92
2023/05/18 15:59:07;;;;;;;;;;;;;;;;;;4974144;28;19929;-93
2023/05/18 16:01:33;;;;;;;;;;;;;;;;;;4958534;28;20017;-93
2023/05/18 16:03:59;;;;;;;;;;;;;;;;;;4957955;28;19922;-93
2023/05/18 16:06:25;;;;;;;;;;;;;;;;;;4958371;28;20009;-94
2023/05/18 16:08:51;;;;;;;;;;;;;;;;;;4983317;28;19961;-93
2023/05/18 16:11:17;;;;;;;;;;;;;;;;;;4970881;28;19922;-91
2023/05/18 16:13:42;;;;;;;;;;;;;;;;;;4962185;28;19972;-93
2023/05/18 16:16:12;;;;;;;;;;;;;;;;;;4962299;28;19961;-93
2023/05/18 16:18:38;;;;;;;;;;;;;;;;;;4977605;28;19992;-93
2023/05/18 16:21:04;;;;;;;;;;;;;;;;;;4978021;28;20367;-93
2023/05/18 16:23:33;;;;;;;;;;;;;;;;;;4961705;28;19977;-93
2023/05/18 16:26:03;;;;;;;;;;;;;;;;;;4961644;28;20013;-94
2023/05/18 16:28:29;;;;;;;;;;;;;;;;;;4961869;28;20290;-94
2023/05/18 16:30:55;;;;;;;;;;;;;;;;;;4961784;28;19922;-94
2023/05/18 16:33:21;;;;;;;;;;;;;;;;;;4961757;28;19929;-93
2023/05/18 16:35:47;;;;;;;;;;;;;;;;;;4977709;28;19922;-93
2023/05/18 16:38:13;;;;;;;;;;;;;;;;;;4961753;28;20401;-90
2023/05/18 16:40:39;;;;;;;;;;;;;;;;;;4961233;28;19922;-93
2023/05/18 16:43:05;;;;;;;;;;;;;;;;;;4960355;28;19929;-94